Time;durP1;ratioP1;P1;durP2;ratioP2;P2;SDS_P1;SDS_P2;PMS_P1;PMS_P2;Temp;Humidity;BMP_temperature;BMP_pressure;BME280_temperature;BME280_humidity;BME280_pressure;Samples;Min_cycle;Max_cycle;Signal;HPM_P1;HPM_P2
2022/07/01 00:05:12;;;;;;;1.77;1.60;;;;;;;19.18;100.00;101035.69;20968285;28;21035;-77
2022/07/01 00:15:21;;;;;;;2.08;1.88;;;;;;;19.17;100.00;101052.88;20882286;28;20041;-77
2022/07/01 00:25:23;;;;;;;1.58;1.48;;;;;;;19.03;100.00;101004.72;20958534;28;20040;-77
2022/07/01 00:35:25;;;;;;;1.63;1.50;;;;;;;18.96;100.00;100994.44;20967918;28;20040;-77
2022/07/01 00:45:26;;;;;;;1.92;1.80;;;;;;;19.16;100.00;101045.75;20966872;28;20049;-77
2022/07/01 00:55:28;;;;;;;1.52;1.42;;;;;;;19.03;100.00;101037.94;20964916;28;20044;-77
2022/07/01 01:05:29;;;;;;;1.25;1.15;;;;;;;19.14;100.00;101036.97;20947806;28;20086;-77
2022/07/01 01:15:31;;;;;;;1.65;1.27;;;;;;;19.07;100.00;101011.53;20951485;28;20064;-77
2022/07/01 01:25:33;;;;;;;1.55;1.35;;;;;;;19.09;100.00;101006.84;20965165;28;20059;-77
2022/07/01 01:35:35;;;;;;;1.23;1.13;;;;;;;18.94;100.00;101007.22;20963606;28;20049;-77
2022/07/01 01:45:36;;;;;;;3.63;1.55;;;;;;;19.11;100.00;101042.63;20963798;28;20055;-77
2022/07/01 01:55:38;;;;;;;1.00;0.90;;;;;;;19.09;100.00;101075.16;20963846;28;20404;-77
2022/07/01 02:05:39;;;;;;;1.20;1.10;;;;;;;19.09;100.00;101090.50;20978038;28;20056;-77
2022/07/01 02:15:49;;;;;;;1.10;0.93;;;;;;;19.08;100.00;101097.72;20969809;28;20076;-77
2022/07/01 02:25:51;;;;;;;1.20;0.90;;;;;;;19.05;100.00;101089.06;20976546;28;20052;-77
2022/07/01 02:35:52;;;;;;;1.23;1.05;;;;;;;19.08;100.00;101096.88;20976038;28;20052;-77
2022/07/01 02:45:54;;;;;;;1.00;0.90;;;;;;;19.08;100.00;101102.28;20976452;28;20512;-77
2022/07/01 02:55:55;;;;;;;1.15;0.70;;;;;;;19.06;100.00;101090.78;20974368;28;20051;-77
2022/07/01 03:05:57;;;;;;;1.00;0.70;;;;;;;18.99;100.00;101096.72;20975172;28;20071;-77
2022/07/01 03:15:58;;;;;;;0.77;0.77;;;;;;;19.05;100.00;101116.06;20959922;28;20056;-77
2022/07/01 03:26:00;;;;;;;1.20;0.80;;;;;;;19.05;100.00;101137.66;20973424;28;20386;-77
2022/07/01 03:36:02;;;;;;;0.80;0.80;;;;;;;18.88;100.00;101115.69;20972802;28;20397;-77
2022/07/01 03:46:03;;;;;;;0.60;0.60;;;;;;;19.03;100.00;101118.03;20972305;28;20079;-77
2022/07/01 03:56:05;;;;;;;1.05;0.85;;;;;;;19.03;100.00;101128.84;20970931;28;20060;-78
2022/07/01 04:06:06;;;;;;;0.75;0.70;;;;;;;19.02;100.00;101148.72;20969547;28;20408;-77
2022/07/01 04:16:08;;;;;;;0.80;0.75;;;;;;;18.86;100.00;101155.44;20932361;28;20044;-77
2022/07/01 04:26:10;;;;;;;0.70;0.70;;;;;;;18.97;100.00;101179.63;20968141;28;20049;-77
2022/07/01 04:36:32;;;;;;;1.05;1.00;;;;;;;19.00;100.00;101197.41;20967232;28;20530;-76
2022/07/01 04:46:33;;;;;;;1.10;0.90;;;;;;;18.98;100.00;101213.72;20967504;28;20043;-77
2022/07/01 04:56:36;;;;;;;1.45;1.10;;;;;;;18.98;100.00;101218.28;20964902;28;20086;-77
2022/07/01 05:06:45;;;;;;;1.02;0.93;;;;;;;18.97;100.00;101222.81;20965569;28;20052;-77
2022/07/01 05:16:46;;;;;;;1.40;1.30;;;;;;;18.97;100.00;101222.81;20955084;28;20090;-76
2022/07/01 05:26:49;;;;;;;1.23;1.13;;;;;;;18.96;100.00;101226.47;20963826;28;20076;-77
2022/07/01 05:36:50;;;;;;;1.38;1.27;;;;;;;18.96;100.00;101248.03;20954252;28;20450;-76
2022/07/01 05:46:52;;;;;;;1.90;1.50;;;;;;;18.77;100.00;101215.59;20967021;28;20144;-76
2022/07/01 05:56:53;;;;;;;1.30;1.20;;;;;;;18.96;100.00;101258.84;20820506;28;20057;-77
2022/07/01 06:06:55;;;;;;;1.42;1.33;;;;;;;18.95;100.00;101249.03;20811265;28;20041;-76
2022/07/01 06:16:57;;;;;;;2.10;1.48;;;;;;;18.96;100.00;101245.34;20870541;28;20592;-77
2022/07/01 06:26:59;;;;;;;1.50;1.15;;;;;;;18.87;100.00;101232.66;20867154;28;20052;-77
2022/07/01 06:37:01;;;;;;;2.13;1.92;;;;;;;18.95;100.00;101235.53;20860950;28;20661;-77
2022/07/01 06:47:03;;;;;;;2.28;2.05;;;;;;;18.76;100.00;101195.84;20801731;28;20096;-77
2022/07/01 06:57:06;;;;;;;2.42;2.22;;;;;;;18.96;100.00;101245.34;20773910;28;20045;-78
2022/07/01 07:07:07;;;;;;;2.40;2.20;;;;;;;18.96;100.00;101269.63;20859473;28;20068;-78
2022/07/01 07:17:09;;;;;;;2.53;2.08;;;;;;;18.83;100.00;101259.06;20844039;28;20516;-78
2022/07/01 07:27:10;;;;;;;3.03;2.70;;;;;;;18.96;100.00;101284.97;20827192;28;20502;-78
2022/07/01 07:37:12;;;;;;;2.90;2.40;;;;;;;18.86;100.00;101290.31;20857887;28;20570;-77
2022/07/01 07:47:13;;;;;;;3.00;2.80;;;;;;;18.93;100.00;101288.78;20831710;28;20055;-77
2022/07/01 07:57:15;;;;;;;3.45;3.13;;;;;;;18.92;100.00;101291.63;20853677;28;20045;-78
2022/07/01 08:07:20;;;;;;;3.28;2.97;;;;;;;18.98;100.00;101310.00;20845701;28;20139;-78
2022/07/01 08:17:21;;;;;;;3.42;3.13;;;;;;;18.99;99.91;101333.31;20854930;28;20498;-77
2022/07/01 08:27:23;;;;;;;3.58;3.15;;;;;;;18.21;99.68;101186.16;20857973;28;20096;-78
2022/07/01 08:37:25;;;;;;;3.42;3.17;;;;;;;19.00;99.62;101324.22;20847077;28;20072;-78
2022/07/01 08:47:26;;;;;;;4.28;3.83;;;;;;;19.04;99.48;101324.81;20774385;28;20046;-77
2022/07/01 08:57:30;;;;;;;4.05;3.63;;;;;;;19.06;99.18;101326.38;20773670;28;20041;-78
2022/07/01 09:07:33;;;;;;;4.22;3.70;;;;;;;19.08;98.83;101332.50;20777846;28;20132;-77
2022/07/01 09:17:42;;;;;;;4.00;3.60;;;;;;;19.10;98.78;101365.59;20804076;28;20051;-77
2022/07/01 09:27:44;;;;;;;3.88;3.50;;;;;;;19.11;98.30;101369.16;20779313;28;20486;-77
2022/07/01 09:37:54;;;;;;;3.42;3.15;;;;;;;19.10;98.21;101372.84;20789776;28;20040;-77
2022/07/01 09:47:56;;;;;;;3.50;3.20;;;;;;;19.09;98.24;101387.34;20855904;28;20551;-77
2022/07/01 09:57:57;;;;;;;3.78;3.38;;;;;;;19.08;98.06;101399.97;20864244;28;20041;-77
2022/07/01 10:08:20;;;;;;;3.50;3.15;;;;;;;19.08;97.87;101391.88;20849983;28;20183;-77
2022/07/01 10:18:24;;;;;;;3.38;3.08;;;;;;;19.08;97.41;101391.03;20803965;28;20080;-77
2022/07/01 10:28:47;;;;;;;3.37;2.97;;;;;;;19.08;97.24;101386.47;20802913;28;20136;-76
2022/07/01 10:39:03;;;;;;;3.28;2.97;;;;;;;19.08;96.88;101374.84;20807394;28;20046;-76
2022/07/01 10:49:04;;;;;;;3.28;2.97;;;;;;;19.08;96.53;101377.53;20841033;28;20052;-77
2022/07/01 10:59:07;;;;;;;3.03;2.72;;;;;;;19.09;96.52;101395.44;20874653;28;20141;-76
2022/07/01 11:09:12;;;;;;;3.90;3.15;;;;;;;18.87;96.14;101343.28;20833673;28;20550;-76
2022/07/01 11:19:14;;;;;;;;;;;;;;;19.08;95.41;101370.28;20877889;28;20136;-76
2022/07/01 11:29:25;;;;;;;3.13;2.65;;;;;;;18.92;95.54;101341.03;20807212;28;19955;-76
2022/07/01 11:39:27;;;;;;;2.88;2.60;;;;;;;18.96;95.33;101347.88;20882107;28;20064;-76
2022/07/01 11:49:30;;;;;;;3.40;2.50;;;;;;;19.08;95.28;101366.75;20869075;28;20053;-76
2022/07/01 11:59:33;;;;;;;3.30;2.95;;;;;;;18.92;94.89;101343.72;20855667;28;20420;-77
2022/07/01 12:09:35;;;;;;;2.80;2.10;;;;;;;19.08;94.88;101374.84;20855888;28;20041;-76
2022/07/01 12:19:37;;;;;;;2.40;2.00;;;;;;;19.08;94.99;101393.72;20856164;28;20090;-76
2022/07/01 12:29:50;;;;;;;2.17;1.98;;;;;;;19.08;94.67;101388.31;20845583;28;20044;-77
2022/07/01 12:39:57;;;;;;;2.35;1.92;;;;;;;18.96;94.30;101366.75;20852548;28;20060;-77
2022/07/01 12:50:16;;;;;;;1.75;1.55;;;;;;;19.08;93.88;101375.69;20875273;28;20501;-76
2022/07/01 13:00:19;;;;;;;2.30;1.75;;;;;;;19.09;93.69;101392.72;20881339;28;20063;-76
2022/07/01 13:10:22;;;;;;;1.90;1.60;;;;;;;19.09;93.44;101398.13;20864349;28;20139;-77
2022/07/01 13:20:24;;;;;;;2.20;1.65;;;;;;;19.08;92.51;101416.16;20880293;28;20070;-76
2022/07/01 13:30:25;;;;;;;1.77;1.55;;;;;;;19.09;92.45;101419.72;20879048;28;20501;-76
2022/07/01 13:40:27;;;;;;;1.63;1.25;;;;;;;19.09;92.05;101435.91;20880392;28;20095;-77
2022/07/01 13:50:28;;;;;;;3.08;2.00;;;;;;;19.10;91.92;101445.72;20878232;28;20457;-77
2022/07/01 14:00:30;;;;;;;2.58;1.45;;;;;;;18.96;91.86;101431.50;20883625;28;20048;-78
2022/07/01 14:10:34;;;;;;;1.40;1.10;;;;;;;19.10;91.49;101454.66;20875566;28;20076;-77
2022/07/01 14:20:36;;;;;;;1.60;1.20;;;;;;;19.10;91.42;101467.31;20878067;28;20066;-77
2022/07/01 14:30:43;;;;;;;2.15;1.13;;;;;;;18.93;91.45;101447.97;20877098;28;20547;-77
2022/07/01 14:40:44;;;;;;;1.10;1.00;;;;;;;18.96;91.40;101447.69;20869734;28;20053;-78
2022/07/01 14:50:46;;;;;;;1.50;1.20;;;;;;;19.08;91.46;101466.59;20867306;28;20049;-77
2022/07/01 15:00:47;;;;;;;2.25;0.90;;;;;;;19.03;91.25;101453.47;20874249;28;20069;-77
2022/07/01 15:10:49;;;;;;;1.10;1.00;;;;;;;19.09;91.40;101465.59;20865831;28;20303;-76
2022/07/01 15:20:51;;;;;;;1.55;1.10;;;;;;;19.08;91.18;101467.44;20867018;28;20041;-76
2022/07/01 15:30:52;;;;;;;1.90;0.82;;;;;;;19.05;91.16;101472.25;20862304;28;20059;-78
2022/07/01 15:40:54;;;;;;;1.33;0.95;;;;;;;19.10;91.26;101478.09;20860658;28;20436;-76
2022/07/01 15:50:56;;;;;;;0.85;0.75;;;;;;;19.09;90.84;101495.28;20860436;28;20159;-77
2022/07/01 16:00:58;;;;;;;2.65;1.10;;;;;;;19.09;91.11;101500.69;20796678;28;20056;-78
2022/07/01 16:11:08;;;;;;;1.35;1.08;;;;;;;19.09;90.81;101523.13;20791171;28;20076;-77
2022/07/01 16:21:10;;;;;;;2.20;0.88;;;;;;;19.09;90.64;101527.66;20788922;28;20049;-76
2022/07/01 16:31:14;;;;;;;1.08;0.77;;;;;;;19.10;90.61;101523.97;20772594;28;20053;-77
2022/07/01 16:41:22;;;;;;;1.67;0.77;;;;;;;19.11;90.32;101539.19;20858207;28;20079;-76
2022/07/01 16:51:29;;;;;;;1.25;0.70;;;;;;;18.67;90.35;101474.44;20855109;28;20057;-77
2022/07/01 17:01:30;;;;;;;0.82;0.70;;;;;;;18.97;90.25;101525.00;20835548;28;20106;-77
2022/07/01 17:11:33;;;;;;;3.10;1.35;;;;;;;19.13;90.15;101548.00;20846701;28;20072;-76
2022/07/01 17:21:40;;;;;;;1.23;0.63;;;;;;;19.12;89.79;101543.59;20846371;28;20041;-77
2022/07/01 17:31:50;;;;;;;2.35;0.70;;;;;;;19.16;89.79;101550.44;20859625;28;20044;-77
2022/07/01 17:41:53;;;;;;;1.25;0.90;;;;;;;19.12;89.53;101557.09;20863058;28;20476;-76
2022/07/01 17:51:55;;;;;;;0.63;0.60;;;;;;;19.13;89.56;101573.16;20856785;28;20537;-76
2022/07/01 18:01:58;;;;;;;1.95;0.98;;;;;;;19.13;89.46;101572.31;20791865;28;20088;-76
2022/07/01 18:12:19;;;;;;;1.08;0.55;;;;;;;19.10;88.99;101568.00;20785770;28;20067;-75
2022/07/01 18:22:32;;;;;;;0.55;0.50;;;;;;;19.08;88.97;101582.63;20797615;28;20107;-75
2022/07/01 18:32:36;;;;;;;0.98;0.60;;;;;;;19.10;88.96;101580.66;20827836;28;20107;-75
2022/07/01 18:42:38;;;;;;;1.42;0.60;;;;;;;19.08;89.05;101586.16;20866357;28;20079;-77
2022/07/01 18:52:40;;;;;;;0.55;0.43;;;;;;;19.07;89.19;101591.72;20891833;28;20037;-77
2022/07/01 19:02:42;;;;;;;1.23;0.50;;;;;;;19.02;89.21;101599.34;20890648;28;20136;-77
2022/07/01 19:12:44;;;;;;;0.40;0.40;;;;;;;19.07;89.65;101613.31;20841453;28;20037;-76
2022/07/01 19:22:46;;;;;;;1.48;0.68;;;;;;;19.06;89.37;101617.81;20806574;28;20402;-76
2022/07/01 19:32:48;;;;;;;1.10;0.50;;;;;;;19.06;89.30;101636.72;20823304;28;20037;-76
2022/07/01 19:42:50;;;;;;;0.82;0.60;;;;;;;19.05;89.16;101656.59;20883441;28;20094;-76
2022/07/01 19:52:51;;;;;;;1.23;0.60;;;;;;;19.05;89.17;101666.53;20883014;28;20095;-77
2022/07/01 20:02:53;;;;;;;0.80;0.52;;;;;;;18.99;89.26;101668.72;20881328;28;20567;-76
2022/07/01 20:12:55;;;;;;;0.90;0.60;;;;;;;19.03;89.22;101696.34;20881074;28;20048;-76
2022/07/01 20:22:56;;;;;;;0.70;0.50;;;;;;;19.03;89.10;101709.00;20878919;28;20041;-76
2022/07/01 20:32:58;;;;;;;0.98;0.50;;;;;;;19.01;88.45;101714.50;20877640;28;20079;-76
2022/07/01 20:42:59;;;;;;;0.80;0.60;;;;;;;19.01;88.80;101730.69;20877802;28;20579;-77
2022/07/01 20:53:01;;;;;;;1.65;0.60;;;;;;;18.90;88.98;101715.31;20881303;28;20052;-76
2022/07/01 21:03:03;;;;;;;1.00;0.50;;;;;;;18.67;88.86;101707.25;20880223;28;20049;-77
2022/07/01 21:13:04;;;;;;;1.05;0.40;;;;;;;19.01;88.81;101762.22;20882841;28;20079;-77
2022/07/01 21:23:06;;;;;;;1.52;0.40;;;;;;;19.00;88.61;101766.75;20882843;28;20190;-77
2022/07/01 21:33:08;;;;;;;0.93;0.50;;;;;;;18.80;88.36;101757.50;20880179;28;20051;-76
2022/07/01 21:43:12;;;;;;;0.60;0.60;;;;;;;18.98;88.23;101788.44;20879594;28;20111;-76
2022/07/01 21:53:14;;;;;;;0.60;0.50;;;;;;;18.98;88.01;101787.59;20878620;28;20049;-76
2022/07/01 22:03:15;;;;;;;1.20;0.70;;;;;;;18.86;87.61;101772.38;20881398;28;20098;-76
2022/07/01 22:13:20;;;;;;;1.38;0.50;;;;;;;18.92;87.66;101793.47;20880448;28;20143;-76
2022/07/01 22:23:21;;;;;;;0.50;0.50;;;;;;;18.83;87.59;101781.53;20894115;28;20045;-76
2022/07/01 22:33:24;;;;;;;1.50;0.80;;;;;;;18.94;87.62;101808.53;20895498;28;20425;-77
2022/07/01 22:43:26;;;;;;;1.00;0.70;;;;;;;18.94;87.61;101811.22;20894306;28;20044;-77
2022/07/01 22:53:33;;;;;;;0.60;0.52;;;;;;;18.93;87.61;101814.06;20891838;28;20098;-77
2022/07/01 23:03:35;;;;;;;0.80;0.60;;;;;;;18.93;87.40;101816.75;20891201;28;20047;-76
2022/07/01 23:24:08;;;;;;;0.70;0.57;;;;;;;18.91;87.15;101822.25;20891271;28;20051;-76
2022/07/01 23:34:10;;;;;;;1.00;0.52;;;;;;;18.91;86.88;101816.88;20890528;28;20395;-77
2022/07/01 23:44:12;;;;;;;0.95;0.50;;;;;;;18.88;86.87;101817.13;20889012;28;20099;-77
2022/07/01 23:54:13;;;;;;;0.68;0.60;;;;;;;18.90;86.71;101831.34;20887401;28;20049;-77
